createdAt,value
2023-04-07T00:00:24.795Z,12.13
2023-04-07T00:02:54.114Z,12.15
2023-04-07T00:05:23.154Z,11.27
2023-04-07T00:07:56.272Z,11.75
2023-04-07T00:10:27.316Z,11.68
2023-04-07T00:12:56.446Z,12.25
2023-04-07T00:15:23.117Z,10.98
2023-04-07T00:17:50.133Z,12.13
2023-04-07T00:20:21.748Z,12.48
2023-04-07T00:22:48.444Z,12.27
2023-04-07T00:25:15.452Z,12.68
2023-04-07T00:27:42.102Z,12.45
2023-04-07T00:30:09.064Z,12.40
2023-04-07T00:32:36.529Z,12.35
2023-04-07T00:35:03.443Z,13.77
2023-04-07T00:37:30.330Z,13.90
2023-04-07T00:39:58.024Z,13.82
2023-04-07T00:42:27.038Z,13.88
2023-04-07T00:44:58.041Z,14.45
2023-04-07T00:47:24.824Z,14.05
2023-04-07T00:49:53.804Z,13.75
2023-04-07T00:52:27.266Z,14.32
2023-04-07T00:54:56.729Z,13.40
2023-04-07T00:57:25.864Z,13.88
2023-04-07T00:59:53.488Z,13.82
2023-04-07T01:02:41.272Z,14.45
2023-04-07T01:05:26.295Z,14.05
2023-04-07T01:08:15.482Z,14.13
2023-04-07T01:10:49.971Z,13.32
2023-04-07T01:13:31.577Z,14.05
2023-04-07T01:16:04.320Z,13.35
2023-04-07T01:18:39.098Z,14.82
2023-04-07T01:21:17.349Z,15.47
2023-04-07T01:24:20.751Z,19.52
2023-04-07T01:26:52.606Z,16.02
2023-04-07T01:29:41.188Z,17.15
2023-04-07T01:32:13.767Z,17.30
2023-04-07T01:34:41.791Z,19.48
2023-04-07T01:37:09.768Z,20.92
2023-04-07T01:39:39.834Z,20.95
2023-04-07T01:42:07.551Z,21.73
2023-04-07T01:44:37.694Z,23.13
2023-04-07T01:47:05.721Z,22.23
2023-04-07T01:49:36.625Z,22.95
2023-04-07T01:52:04.143Z,22.88
2023-04-07T01:54:33.925Z,24.75
2023-04-07T01:57:02.873Z,24.58
2023-04-07T01:59:32.113Z,23.80
2023-04-07T02:02:01.530Z,22.65
2023-04-07T02:04:38.857Z,23.67
2023-04-07T02:07:19.602Z,23.48
2023-04-07T02:09:50.008Z,22.30
2023-04-07T02:12:17.287Z,21.55
2023-04-07T02:14:44.610Z,22.50
2023-04-07T02:17:13.260Z,23.17
2023-04-07T02:19:42.577Z,21.75
2023-04-07T02:22:11.903Z,20.75
2023-04-07T02:24:44.322Z,20.35
2023-04-07T02:27:15.643Z,20.48
2023-04-07T02:29:42.310Z,21.35
2023-04-07T02:32:08.992Z,20.25
2023-04-07T02:34:38.164Z,20.67
2023-04-07T02:37:04.838Z,21.48
2023-04-07T02:39:33.969Z,17.55
2023-04-07T02:42:02.871Z,15.73
2023-04-07T02:44:29.513Z,2.72
2023-04-07T02:46:58.546Z,1.58
2023-04-07T02:49:25.176Z,1.95
2023-04-07T02:51:51.921Z,2.35
2023-04-07T02:54:18.645Z,3.97
2023-04-07T02:56:45.358Z,2.67
2023-04-07T02:59:14.508Z,2.83
2023-04-07T03:01:41.306Z,4.28
2023-04-07T03:04:08.176Z,2.50
2023-04-07T03:06:42.098Z,2.88
2023-04-07T03:09:08.727Z,2.15
2023-04-07T03:11:38.381Z,2.78
2023-04-07T03:14:04.995Z,2.65
2023-04-07T03:16:33.920Z,2.05
2023-04-07T03:19:02.801Z,2.22
2023-04-07T03:21:29.511Z,3.17
2023-04-07T03:23:58.662Z,2.95
2023-04-07T03:26:25.391Z,4.30
2023-04-07T03:28:52.078Z,4.88
2023-04-07T03:31:18.783Z,1.95
2023-04-07T03:33:45.539Z,4.07
2023-04-07T03:36:17.843Z,1.42
2023-04-07T03:38:48.912Z,2.10
2023-04-07T03:41:17.804Z,1.58
2023-04-07T03:43:44.565Z,1.70
2023-04-07T03:46:11.424Z,2.80
2023-04-07T03:48:45.236Z,2.35
2023-04-07T03:51:14.233Z,1.75
2023-04-07T03:53:43.099Z,2.00
2023-04-07T03:56:12.318Z,1.92
2023-04-07T03:58:41.513Z,1.67
2023-04-07T04:01:08.554Z,1.95
2023-04-07T04:03:37.991Z,2.63
2023-04-07T04:06:07.181Z,2.38
2023-04-07T04:08:36.029Z,2.45
2023-04-07T04:11:02.680Z,3.05
2023-04-07T04:13:29.384Z,1.50
2023-04-07T04:15:56.507Z,2.45
2023-04-07T04:18:23.243Z,2.85
2023-04-07T04:20:49.986Z,1.75
2023-04-07T04:23:18.879Z,2.25
2023-04-07T04:25:47.711Z,1.73
2023-04-07T04:28:14.490Z,1.77
2023-04-07T04:30:41.160Z,2.20
2023-04-07T04:33:07.972Z,2.53
2023-04-07T04:35:34.645Z,1.95
2023-04-07T04:38:03.692Z,2.92
2023-04-07T04:40:32.795Z,2.67
2023-04-07T04:42:59.432Z,1.90
2023-04-07T04:45:26.072Z,3.25
2023-04-07T04:47:54.899Z,1.73
2023-04-07T04:50:23.694Z,1.77
2023-04-07T04:52:50.337Z,1.58
2023-04-07T04:55:17.053Z,2.80
2023-04-07T04:57:43.716Z,2.53
2023-04-07T05:00:10.951Z,2.35
2023-04-07T05:02:40.010Z,1.48
2023-04-07T05:05:07.272Z,1.15
2023-04-07T05:07:37.162Z,1.70
2023-04-07T05:10:07.298Z,1.77
2023-04-07T05:12:34.015Z,1.70
2023-04-07T05:15:00.622Z,1.02
2023-04-07T05:17:32.080Z,1.65
2023-04-07T05:20:01.393Z,1.48
2023-04-07T05:22:28.065Z,1.02
2023-04-07T05:24:57.222Z,1.08
2023-04-07T05:27:23.868Z,1.30
2023-04-07T05:29:53.059Z,1.50
2023-04-07T05:32:19.664Z,1.23
2023-04-07T05:34:46.337Z,1.20
2023-04-07T05:37:15.404Z,1.17
2023-04-07T05:39:42.064Z,1.17
2023-04-07T05:42:08.716Z,6.35
2023-04-07T05:44:40.044Z,12.77
2023-04-07T05:47:08.975Z,11.52
2023-04-07T05:49:35.895Z,12.50
2023-04-07T05:52:07.284Z,12.63
2023-04-07T05:54:36.567Z,11.20
2023-04-07T05:57:03.769Z,11.38
2023-04-07T05:59:32.564Z,11.70
2023-04-07T06:01:59.222Z,10.13
2023-04-07T06:04:28.535Z,9.55
2023-04-07T06:06:55.533Z,10.48
2023-04-07T06:09:22.835Z,9.15
2023-04-07T06:11:51.722Z,8.77
2023-04-07T06:14:21.036Z,9.18
2023-04-07T06:16:50.439Z,8.52
2023-04-07T06:19:19.634Z,7.75
2023-04-07T06:21:46.340Z,8.15
2023-04-07T06:24:12.946Z,8.07
2023-04-07T06:26:44.406Z,7.57
2023-04-07T06:29:11.132Z,8.07
2023-04-07T06:31:38.067Z,6.95
2023-04-07T06:34:07.399Z,6.95
2023-04-07T06:36:34.504Z,6.90
2023-04-07T06:39:03.945Z,6.47
2023-04-07T06:41:32.548Z,7.30
2023-04-07T06:43:59.243Z,7.80
2023-04-07T06:46:26.712Z,7.60
2023-04-07T06:48:53.365Z,6.65
2023-04-07T06:51:22.606Z,7.47
2023-04-07T06:53:49.648Z,7.55
2023-04-07T06:56:16.570Z,7.05
2023-04-07T06:58:45.434Z,7.35
2023-04-07T07:01:14.321Z,6.97
2023-04-07T07:03:43.274Z,7.25
2023-04-07T07:06:14.430Z,7.47
2023-04-07T07:08:41.188Z,7.70
2023-04-07T07:11:07.915Z,6.40
2023-04-07T07:13:37.495Z,7.32
2023-04-07T07:16:04.441Z,7.90
2023-04-07T07:18:33.275Z,8.77
2023-04-07T07:20:59.920Z,8.70
2023-04-07T07:23:26.563Z,7.97
2023-04-07T07:25:54.590Z,8.23
2023-04-07T07:28:21.815Z,7.82
2023-04-07T07:30:52.960Z,6.97
2023-04-07T07:33:22.690Z,7.88
2023-04-07T07:35:49.449Z,8.05
2023-04-07T07:38:18.688Z,8.23
2023-04-07T07:40:47.721Z,8.20
2023-04-07T07:43:17.995Z,7.20
2023-04-07T07:45:44.746Z,8.48
2023-04-07T07:48:13.952Z,8.82
2023-04-07T07:50:40.706Z,8.43
2023-04-07T07:53:07.330Z,8.52
2023-04-07T07:55:33.984Z,8.57
2023-04-07T07:58:02.754Z,8.88
2023-04-07T08:00:29.490Z,9.38
2023-04-07T08:02:58.447Z,9.05
2023-04-07T08:05:27.404Z,9.48
2023-04-07T08:07:55.343Z,9.10
2023-04-07T08:10:25.191Z,8.27
2023-04-07T08:12:51.885Z,8.40
2023-04-07T08:15:20.756Z,8.52
2023-04-07T08:17:53.446Z,8.52
2023-04-07T08:20:21.523Z,8.55
2023-04-07T08:22:48.757Z,6.82
2023-04-07T08:25:17.576Z,7.68
2023-04-07T08:27:44.242Z,7.93
2023-04-07T08:30:11.066Z,8.00
2023-04-07T08:32:44.661Z,6.78
2023-04-07T08:35:16.109Z,7.97
2023-04-07T08:37:47.445Z,7.18
2023-04-07T08:40:17.343Z,7.95
2023-04-07T08:42:50.098Z,6.97
2023-04-07T08:45:18.549Z,7.60
2023-04-07T08:47:48.055Z,8.10
2023-04-07T08:50:18.304Z,7.30
2023-04-07T08:52:46.504Z,7.30
2023-04-07T08:55:15.757Z,7.82
2023-04-07T08:57:47.965Z,7.72
2023-04-07T09:00:17.260Z,8.07
2023-04-07T09:02:45.660Z,8.50
2023-04-07T09:05:14.619Z,8.10
2023-04-07T09:07:46.612Z,7.80
2023-04-07T09:10:18.492Z,7.55
2023-04-07T09:12:45.403Z,7.57
2023-04-07T09:15:14.204Z,7.75
2023-04-07T09:17:43.725Z,8.00
2023-04-07T09:20:13.304Z,8.25
2023-04-07T09:22:47.647Z,8.13
2023-04-07T09:25:29.825Z,8.45
2023-04-07T09:28:04.355Z,8.57
2023-04-07T09:30:33.351Z,7.72
2023-04-07T09:33:03.097Z,6.90
2023-04-07T09:35:32.454Z,7.60
2023-04-07T09:38:07.718Z,7.72
2023-04-07T09:40:36.443Z,9.32
2023-04-07T09:43:05.299Z,7.97
2023-04-07T09:45:37.181Z,8.82
2023-04-07T09:48:20.688Z,8.90
2023-04-07T09:50:51.821Z,8.63
2023-04-07T09:53:23.084Z,10.02
2023-04-07T09:55:50.452Z,9.80
2023-04-07T09:58:18.601Z,10.43
2023-04-07T10:00:50.250Z,10.75
2023-04-07T10:03:17.826Z,10.88
2023-04-07T10:05:51.763Z,11.75
2023-04-07T10:08:18.791Z,12.55
2023-04-07T10:10:50.834Z,12.13
2023-04-07T10:13:20.458Z,12.32
2023-04-07T10:15:50.643Z,11.90
2023-04-07T10:18:20.268Z,11.95
2023-04-07T10:20:52.848Z,12.23
2023-04-07T10:23:28.398Z,12.65
2023-04-07T10:26:00.525Z,11.52
2023-04-07T10:28:32.240Z,11.98
2023-04-07T10:31:01.983Z,12.73
2023-04-07T10:34:02.636Z,12.60
2023-04-07T10:36:29.284Z,14.30
2023-04-07T10:39:08.190Z,12.55
2023-04-07T10:41:36.613Z,12.02
2023-04-07T10:44:06.872Z,11.82
2023-04-07T10:46:46.578Z,11.10
2023-04-07T10:49:18.595Z,10.77
2023-04-07T10:52:11.843Z,10.25
2023-04-07T10:54:42.701Z,10.85
2023-04-07T10:57:12.167Z,11.00
2023-04-07T11:00:10.589Z,12.15
2023-04-07T11:02:42.603Z,10.60
2023-04-07T11:05:24.599Z,10.93
2023-04-07T11:07:55.524Z,11.20
2023-04-07T11:10:25.011Z,10.77
2023-04-07T11:13:06.398Z,9.73
2023-04-07T11:15:38.651Z,10.02
2023-04-07T11:18:07.510Z,10.32
2023-04-07T11:20:44.945Z,9.90
2023-04-07T11:23:15.688Z,9.25
2023-04-07T11:25:44.897Z,9.63
2023-04-07T11:28:14.641Z,11.57
2023-04-07T11:30:53.031Z,9.43
2023-04-07T11:33:39.078Z,9.38
2023-04-07T11:38:37.819Z,8.93
2023-04-07T11:41:15.418Z,8.35
2023-04-07T11:43:44.539Z,9.73
2023-04-07T11:46:18.770Z,8.52
2023-04-07T11:48:47.237Z,8.30
2023-04-07T11:51:28.003Z,8.43
2023-04-07T11:53:57.453Z,8.63
2023-04-07T11:56:24.271Z,8.93
2023-04-07T11:58:53.249Z,8.88
2023-04-07T12:01:21.018Z,10.18
2023-04-07T12:04:02.873Z,10.43
2023-04-07T12:06:38.321Z,11.23
2023-04-07T12:09:05.834Z,10.35
2023-04-07T12:11:38.418Z,9.20
2023-04-07T12:14:09.699Z,8.95
2023-04-07T12:16:39.361Z,9.80
2023-04-07T12:19:06.071Z,9.13
2023-04-07T12:21:32.735Z,9.48
2023-04-07T12:23:59.358Z,9.50
2023-04-07T12:26:26.266Z,9.45
2023-04-07T12:28:52.940Z,9.55
2023-04-07T12:31:19.740Z,10.07
2023-04-07T12:33:48.881Z,9.60
2023-04-07T12:36:17.950Z,10.05
2023-04-07T12:38:49.639Z,9.60
2023-04-07T12:41:18.698Z,10.95
2023-04-07T12:43:47.896Z,10.82
2023-04-07T12:46:17.043Z,10.27
2023-04-07T12:48:44.444Z,10.60
2023-04-07T12:51:13.658Z,10.90
2023-04-07T12:53:40.560Z,10.30
2023-04-07T12:56:09.686Z,10.38
2023-04-07T12:58:36.416Z,11.00
2023-04-07T13:01:06.003Z,11.75
2023-04-07T13:03:35.035Z,11.55
2023-04-07T13:06:07.294Z,11.23
2023-04-07T13:08:34.006Z,10.93
2023-04-07T13:11:00.891Z,10.10
2023-04-07T13:13:32.958Z,9.95
2023-04-07T13:16:01.800Z,9.48
2023-04-07T13:18:28.516Z,8.75
2023-04-07T13:21:33.776Z,9.10
2023-04-07T13:23:48.491Z,9.57
2023-04-07T13:26:15.142Z,8.55
2023-04-07T13:28:42.760Z,8.98
2023-04-07T13:31:11.743Z,8.40
2023-04-07T13:33:38.468Z,7.38
2023-04-07T13:36:05.454Z,8.05
2023-04-07T13:38:32.165Z,9.18
2023-04-07T13:40:59.042Z,8.63
2023-04-07T13:43:26.256Z,8.15
2023-04-07T13:45:52.920Z,7.60
2023-04-07T13:48:19.597Z,8.05
2023-04-07T13:50:46.253Z,8.38
2023-04-07T13:53:12.929Z,8.38
2023-04-07T13:55:39.710Z,8.85
2023-04-07T13:58:08.821Z,9.45
2023-04-07T14:00:35.826Z,9.02
2023-04-07T14:03:02.674Z,7.18
2023-04-07T14:05:29.495Z,7.35
2023-04-07T14:07:58.392Z,7.78
2023-04-07T14:10:25.035Z,8.10
2023-04-07T14:12:53.836Z,8.40
2023-04-07T14:15:20.462Z,8.88
2023-04-07T14:17:47.186Z,10.10
2023-04-07T14:20:16.102Z,9.13
2023-04-07T14:22:42.731Z,8.35
2023-04-07T14:25:10.402Z,9.18
2023-04-07T14:27:37.111Z,9.07
2023-04-07T14:30:04.120Z,8.85
2023-04-07T14:32:32.830Z,8.63
2023-04-07T14:35:02.285Z,9.43
2023-04-07T14:37:29.556Z,9.00
2023-04-07T14:42:26.072Z,8.40
2023-04-07T14:44:53.113Z,9.90
2023-04-07T14:47:20.049Z,9.32
2023-04-07T14:49:51.197Z,9.43
2023-04-07T14:52:20.430Z,9.50
2023-04-07T14:54:49.382Z,9.02
2023-04-07T14:57:16.629Z,9.75
2023-04-07T14:59:47.199Z,9.63
2023-04-07T15:02:13.916Z,9.30
2023-04-07T15:04:40.733Z,8.90
2023-04-07T15:07:07.456Z,9.68
2023-04-07T15:09:36.523Z,9.65
2023-04-07T15:12:05.849Z,10.38
2023-04-07T15:14:32.520Z,9.45
2023-04-07T15:17:01.683Z,10.07
2023-04-07T15:19:28.357Z,9.80
2023-04-07T15:21:55.137Z,10.63
2023-04-07T15:24:22.213Z,9.60
2023-04-07T15:26:51.870Z,10.20
2023-04-07T15:29:18.571Z,9.38
2023-04-07T15:31:45.403Z,9.35
2023-04-07T15:34:14.469Z,9.52
2023-04-07T15:36:41.111Z,9.57
2023-04-07T15:39:10.233Z,8.27
2023-04-07T15:41:38.453Z,8.68
2023-04-07T15:44:07.487Z,6.50
2023-04-07T15:46:34.197Z,7.63
2023-04-07T15:49:03.177Z,7.25
2023-04-07T15:51:29.984Z,7.25
2023-04-07T15:53:59.010Z,7.13
2023-04-07T15:56:28.199Z,7.20
2023-04-07T15:58:54.896Z,7.78
2023-04-07T16:01:24.927Z,6.78
2023-04-07T16:03:51.726Z,7.00
2023-04-07T16:06:20.709Z,7.15
2023-04-07T16:08:47.357Z,11.00
2023-04-07T16:11:16.477Z,28.48
2023-04-07T16:13:43.115Z,17.80
2023-04-07T16:16:09.792Z,11.38
2023-04-07T16:18:38.748Z,8.00
2023-04-07T16:21:11.088Z,8.10
2023-04-07T16:23:42.816Z,7.65
2023-04-07T16:26:11.990Z,8.40
2023-04-07T16:28:41.757Z,7.43
2023-04-07T16:31:08.830Z,7.68
2023-04-07T16:33:38.013Z,7.97
2023-04-07T16:36:07.289Z,7.20
2023-04-07T16:38:33.942Z,7.90
2023-04-07T16:41:04.861Z,7.72
2023-04-07T16:43:34.139Z,8.43
2023-04-07T16:46:04.124Z,8.00
2023-04-07T16:48:33.574Z,8.57
2023-04-07T16:51:00.399Z,8.55
2023-04-07T16:53:29.312Z,8.27
2023-04-07T16:55:55.952Z,8.75
2023-04-07T16:58:22.700Z,9.48
2023-04-07T17:00:52.988Z,8.35
2023-04-07T17:03:19.919Z,9.00
2023-04-07T17:05:53.874Z,8.48
2023-04-07T17:08:21.078Z,8.43
2023-04-07T17:10:52.420Z,8.40
2023-04-07T17:13:19.067Z,8.65
2023-04-07T17:15:48.225Z,7.78
2023-04-07T17:18:15.121Z,7.00
2023-04-07T17:20:44.348Z,8.43
2023-04-07T17:23:14.072Z,7.93
2023-04-07T17:25:41.013Z,8.20
2023-04-07T17:28:07.763Z,8.90
2023-04-07T17:30:42.092Z,8.80
2023-04-07T17:33:13.480Z,8.13
2023-04-07T17:35:40.330Z,9.00
2023-04-07T17:38:07.197Z,8.05
2023-04-07T17:40:36.070Z,8.20
2023-04-07T17:43:02.792Z,9.35
2023-04-07T17:45:32.913Z,8.18
2023-04-07T17:48:03.615Z,8.80
2023-04-07T17:50:31.129Z,8.80
2023-04-07T17:53:00.755Z,9.50
2023-04-07T17:55:28.346Z,9.35
2023-04-07T17:58:00.596Z,9.75
2023-04-07T18:00:28.164Z,8.77
2023-04-07T18:02:55.198Z,8.52
2023-04-07T18:05:22.541Z,8.90
2023-04-07T18:07:52.124Z,8.98
2023-04-07T18:10:18.910Z,9.73
2023-04-07T18:12:45.776Z,9.05
2023-04-07T18:15:15.218Z,9.65
2023-04-07T18:17:42.431Z,9.32
2023-04-07T18:20:11.763Z,9.73
2023-04-07T18:22:38.476Z,9.85
2023-04-07T18:25:09.808Z,9.43
2023-04-07T18:27:36.777Z,10.23
2023-04-07T18:30:03.677Z,9.68
2023-04-07T18:32:30.434Z,9.80
2023-04-07T18:34:57.174Z,9.63
2023-04-07T18:37:24.216Z,9.48
2023-04-07T18:39:52.152Z,10.48
2023-04-07T18:42:21.327Z,10.90
2023-04-07T18:44:48.257Z,11.45
2023-04-07T18:47:17.248Z,10.90
2023-04-07T18:49:46.471Z,11.38
2023-04-07T18:52:13.212Z,11.65
2023-04-07T18:54:39.844Z,11.43
2023-04-07T18:57:06.488Z,12.25
2023-04-07T18:59:33.131Z,10.48
2023-04-07T19:02:02.324Z,11.43
2023-04-07T19:04:31.394Z,11.68
2023-04-07T19:07:02.951Z,12.35
2023-04-07T19:09:33.193Z,12.20
2023-04-07T19:12:02.194Z,11.88
2023-04-07T19:14:33.544Z,10.70
2023-04-07T19:17:00.334Z,11.95
2023-04-07T19:19:28.068Z,10.68
2023-04-07T19:21:54.791Z,11.10
2023-04-07T19:24:23.974Z,11.90
2023-04-07T19:26:51.507Z,12.02
2023-04-07T19:29:18.182Z,11.73
2023-04-07T19:31:47.918Z,11.85
2023-04-07T19:34:14.542Z,12.27
2023-04-07T19:36:41.187Z,11.93
2023-04-07T19:39:07.810Z,12.25
2023-04-07T19:41:34.467Z,12.05
2023-04-07T19:44:05.672Z,13.23
2023-04-07T19:46:33.617Z,12.13
2023-04-07T19:49:00.317Z,11.75
2023-04-07T19:51:29.415Z,12.18
2023-04-07T19:53:56.223Z,12.85
2023-04-07T19:56:25.380Z,12.43
2023-04-07T19:58:52.217Z,12.35
2023-04-07T20:01:21.507Z,12.88
2023-04-07T20:03:50.637Z,12.55
2023-04-07T20:06:21.304Z,12.00
2023-04-07T20:08:50.423Z,12.90
2023-04-07T20:11:19.389Z,12.00
2023-04-07T20:13:49.944Z,13.23
2023-04-07T20:16:18.834Z,13.50
2023-04-07T20:18:48.026Z,12.07
2023-04-07T20:21:16.279Z,13.77
2023-04-07T20:23:46.376Z,13.77
2023-04-07T20:26:15.566Z,14.00
2023-04-07T20:28:42.229Z,14.02
2023-04-07T20:31:08.963Z,13.40
2023-04-07T20:33:37.873Z,13.18
2023-04-07T20:36:04.677Z,12.93
2023-04-07T20:38:33.852Z,13.23
2023-04-07T20:41:02.715Z,13.27
2023-04-07T20:43:29.420Z,13.27
2023-04-07T20:45:58.531Z,13.00
2023-04-07T20:48:25.615Z,13.05
2023-04-07T20:50:57.487Z,13.02
2023-04-07T20:53:24.145Z,12.52
2023-04-07T20:55:51.566Z,12.13
2023-04-07T20:58:20.708Z,14.05
2023-04-07T21:00:50.321Z,12.60
2023-04-07T21:03:19.437Z,11.77
2023-04-07T21:05:49.747Z,11.20
2023-04-07T21:08:16.401Z,10.48
2023-04-07T21:10:43.124Z,11.27
2023-04-07T21:13:12.272Z,11.55
2023-04-07T21:15:43.635Z,10.73
2023-04-07T21:18:11.092Z,10.52
2023-04-07T21:20:40.338Z,11.35
2023-04-07T21:23:08.491Z,10.77
2023-04-07T21:25:37.791Z,11.93
2023-04-07T21:28:07.220Z,11.52
2023-04-07T21:30:40.598Z,11.18
2023-04-07T21:33:09.768Z,10.88
2023-04-07T21:35:37.512Z,12.88
2023-04-07T21:38:04.218Z,11.05
2023-04-07T21:40:30.994Z,12.10
2023-04-07T21:42:57.771Z,13.00
2023-04-07T21:45:29.587Z,12.98
2023-04-07T21:48:03.543Z,11.48
2023-04-07T21:50:30.380Z,13.80
2023-04-07T21:53:01.837Z,12.73
2023-04-07T21:55:28.480Z,12.38
2023-04-07T21:57:58.117Z,12.65
2023-04-07T22:00:24.878Z,13.25
2023-04-07T22:02:51.708Z,12.38
2023-04-07T22:05:18.752Z,13.10
2023-04-07T22:07:45.752Z,12.35
2023-04-07T22:10:17.134Z,14.07
2023-04-07T22:12:48.547Z,12.43
2023-04-07T22:15:17.883Z,13.13
2023-04-07T22:17:44.689Z,13.68
2023-04-07T22:20:14.211Z,14.25
2023-04-07T22:22:41.136Z,14.00
2023-04-07T22:25:10.337Z,14.52
2023-04-07T22:27:39.267Z,14.70
2023-04-07T22:30:09.819Z,13.40
2023-04-07T22:32:36.953Z,12.95
2023-04-07T22:35:06.085Z,14.23
2023-04-07T22:37:34.912Z,14.90
2023-04-07T22:40:04.164Z,13.75
2023-04-07T22:42:35.388Z,14.20
2023-04-07T22:45:04.508Z,14.07
2023-04-07T22:47:31.269Z,13.98
2023-04-07T22:50:00.530Z,15.18
2023-04-07T22:52:27.268Z,14.32
2023-04-07T22:54:57.774Z,13.82
2023-04-07T22:57:28.807Z,14.38
2023-04-07T22:59:55.654Z,14.30
2023-04-07T23:02:26.026Z,13.77
2023-04-07T23:04:55.234Z,14.57
2023-04-07T23:07:21.903Z,14.18
2023-04-07T23:09:48.562Z,15.13
2023-04-07T23:12:15.559Z,14.77
2023-04-07T23:14:44.690Z,14.50
2023-04-07T23:17:13.802Z,14.18
2023-04-07T23:19:40.478Z,15.00
2023-04-07T23:22:07.182Z,16.83
2023-04-07T23:24:33.880Z,15.60
2023-04-07T23:27:00.726Z,14.98
2023-04-07T23:29:27.567Z,14.70
2023-04-07T23:31:54.280Z,15.10
2023-04-07T23:34:21.544Z,15.13
2023-04-07T23:36:50.499Z,15.32
2023-04-07T23:39:17.140Z,15.07
2023-04-07T23:41:46.207Z,15.38
2023-04-07T23:44:15.591Z,14.98
2023-04-07T23:46:42.216Z,15.88
2023-04-07T23:49:11.480Z,16.08
2023-04-07T23:51:38.348Z,15.32
2023-04-07T23:54:05.011Z,15.93
2023-04-07T23:56:32.991Z,15.30
2023-04-07T23:58:59.600Z,15.18
